sensor_id;sensor_type;location;lat;lon;timestamp;temperature;humidity
12887;DHT22;6511;49.746;6.094;2023-03-14T00:00:59;9.30;99.90
12887;DHT22;6511;49.746;6.094;2023-03-14T00:03:24;9.30;99.90
12887;DHT22;6511;49.746;6.094;2023-03-14T00:05:50;9.30;99.90
12887;DHT22;6511;49.746;6.094;2023-03-14T00:08:16;9.20;99.90
12887;DHT22;6511;49.746;6.094;2023-03-14T00:10:42;9.30;99.90
12887;DHT22;6511;49.746;6.094;2023-03-14T00:13:07;9.30;99.90
12887;DHT22;6511;49.746;6.094;2023-03-14T00:15:34;9.30;99.90
12887;DHT22;6511;49.746;6.094;2023-03-14T00:18:00;9.30;99.90
12887;DHT22;6511;49.746;6.094;2023-03-14T00:20:26;9.30;99.90
12887;DHT22;6511;49.746;6.094;2023-03-14T00:22:51;9.30;99.90
12887;DHT22;6511;49.746;6.094;2023-03-14T00:25:17;9.30;99.90
12887;DHT22;6511;49.746;6.094;2023-03-14T00:27:43;9.40;99.90
12887;DHT22;6511;49.746;6.094;2023-03-14T00:30:09;9.30;99.90
12887;DHT22;6511;49.746;6.094;2023-03-14T00:32:35;9.30;99.90
12887;DHT22;6511;49.746;6.094;2023-03-14T00:35:01;9.20;99.90
12887;DHT22;6511;49.746;6.094;2023-03-14T00:37:27;9.10;99.90
12887;DHT22;6511;49.746;6.094;2023-03-14T00:39:53;9.10;99.90
12887;DHT22;6511;49.746;6.094;2023-03-14T00:42:18;9.00;99.90
12887;DHT22;6511;49.746;6.094;2023-03-14T00:44:44;9.00;99.90
12887;DHT22;6511;49.746;6.094;2023-03-14T00:47:09;8.90;99.90
12887;DHT22;6511;49.746;6.094;2023-03-14T00:49:35;8.90;99.90
12887;DHT22;6511;49.746;6.094;2023-03-14T00:52:01;8.90;99.90
12887;DHT22;6511;49.746;6.094;2023-03-14T00:54:26;9.00;99.90
12887;DHT22;6511;49.746;6.094;2023-03-14T00:56:52;8.90;99.90
12887;DHT22;6511;49.746;6.094;2023-03-14T00:59:18;9.00;99.90
12887;DHT22;6511;49.746;6.094;2023-03-14T01:01:43;8.90;99.90
12887;DHT22;6511;49.746;6.094;2023-03-14T01:04:10;9.10;99.90
12887;DHT22;6511;49.746;6.094;2023-03-14T01:06:35;9.10;99.90
12887;DHT22;6511;49.746;6.094;2023-03-14T01:09:01;9.10;99.90
12887;DHT22;6511;49.746;6.094;2023-03-14T01:11:30;9.10;99.90
12887;DHT22;6511;49.746;6.094;2023-03-14T01:13:56;9.10;99.90
12887;DHT22;6511;49.746;6.094;2023-03-14T01:16:24;9.20;99.90
12887;DHT22;6511;49.746;6.094;2023-03-14T01:18:50;9.10;99.90
12887;DHT22;6511;49.746;6.094;2023-03-14T01:21:21;9.20;99.90
12887;DHT22;6511;49.746;6.094;2023-03-14T01:23:48;9.10;99.90
12887;DHT22;6511;49.746;6.094;2023-03-14T01:26:17;9.20;99.90
12887;DHT22;6511;49.746;6.094;2023-03-14T01:28:45;9.20;99.90
12887;DHT22;6511;49.746;6.094;2023-03-14T01:31:11;9.30;99.90
12887;DHT22;6511;49.746;6.094;2023-03-14T01:33:38;9.30;99.90
12887;DHT22;6511;49.746;6.094;2023-03-14T01:36:05;9.30;99.90
12887;DHT22;6511;49.746;6.094;2023-03-14T01:38:32;9.20;99.90
12887;DHT22;6511;49.746;6.094;2023-03-14T01:40:58;9.30;99.90
12887;DHT22;6511;49.746;6.094;2023-03-14T01:43:24;9.30;99.90
12887;DHT22;6511;49.746;6.094;2023-03-14T01:48:43;9.10;99.90
12887;DHT22;6511;49.746;6.094;2023-03-14T01:51:13;9.00;99.90
12887;DHT22;6511;49.746;6.094;2023-03-14T01:53:41;9.00;99.90
12887;DHT22;6511;49.746;6.094;2023-03-14T01:56:10;8.90;99.90
12887;DHT22;6511;49.746;6.094;2023-03-14T01:58:37;8.90;99.90
12887;DHT22;6511;49.746;6.094;2023-03-14T02:01:07;8.90;99.90
12887;DHT22;6511;49.746;6.094;2023-03-14T02:03:38;8.90;99.90
12887;DHT22;6511;49.746;6.094;2023-03-14T02:06:10;8.90;99.90
12887;DHT22;6511;49.746;6.094;2023-03-14T02:08:37;8.80;99.90
12887;DHT22;6511;49.746;6.094;2023-03-14T02:11:05;8.80;99.90
12887;DHT22;6511;49.746;6.094;2023-03-14T02:13:32;8.90;99.90
12887;DHT22;6511;49.746;6.094;2023-03-14T02:15:58;8.80;99.90
12887;DHT22;6511;49.746;6.094;2023-03-14T02:18:24;8.70;99.90
12887;DHT22;6511;49.746;6.094;2023-03-14T02:21:06;8.70;99.90
12887;DHT22;6511;49.746;6.094;2023-03-14T02:26:24;8.60;99.90
12887;DHT22;6511;49.746;6.094;2023-03-14T02:28:51;8.60;99.90
12887;DHT22;6511;49.746;6.094;2023-03-14T02:31:19;8.50;99.90
12887;DHT22;6511;49.746;6.094;2023-03-14T02:33:46;8.50;99.90
12887;DHT22;6511;49.746;6.094;2023-03-14T02:36:14;8.40;99.90
12887;DHT22;6511;49.746;6.094;2023-03-14T02:41:29;8.40;99.90
12887;DHT22;6511;49.746;6.094;2023-03-14T02:43:55;8.40;99.90
12887;DHT22;6511;49.746;6.094;2023-03-14T02:46:21;8.40;99.90
12887;DHT22;6511;49.746;6.094;2023-03-14T02:48:54;8.40;99.90
12887;DHT22;6511;49.746;6.094;2023-03-14T02:51:23;8.40;99.90
12887;DHT22;6511;49.746;6.094;2023-03-14T02:53:49;8.30;99.90
12887;DHT22;6511;49.746;6.094;2023-03-14T02:56:15;8.40;99.90
12887;DHT22;6511;49.746;6.094;2023-03-14T02:58:41;8.40;99.90
12887;DHT22;6511;49.746;6.094;2023-03-14T03:01:06;8.30;99.90
12887;DHT22;6511;49.746;6.094;2023-03-14T03:03:32;8.40;99.90
12887;DHT22;6511;49.746;6.094;2023-03-14T03:05:58;8.40;99.90
12887;DHT22;6511;49.746;6.094;2023-03-14T03:08:25;8.40;99.90
12887;DHT22;6511;49.746;6.094;2023-03-14T03:10:52;8.40;99.90
12887;DHT22;6511;49.746;6.094;2023-03-14T03:13:18;8.40;99.90
12887;DHT22;6511;49.746;6.094;2023-03-14T03:15:44;8.40;99.90
12887;DHT22;6511;49.746;6.094;2023-03-14T03:18:10;8.40;99.90
12887;DHT22;6511;49.746;6.094;2023-03-14T03:20:36;8.30;99.90
12887;DHT22;6511;49.746;6.094;2023-03-14T03:23:03;8.30;99.90
12887;DHT22;6511;49.746;6.094;2023-03-14T03:25:28;8.30;99.90
12887;DHT22;6511;49.746;6.094;2023-03-14T03:27:54;8.30;99.90
12887;DHT22;6511;49.746;6.094;2023-03-14T03:30:20;8.30;99.90
12887;DHT22;6511;49.746;6.094;2023-03-14T03:32:46;8.30;99.90
12887;DHT22;6511;49.746;6.094;2023-03-14T03:35:12;8.30;99.90
12887;DHT22;6511;49.746;6.094;2023-03-14T03:37:38;8.30;99.90
12887;DHT22;6511;49.746;6.094;2023-03-14T03:40:04;8.30;99.90
12887;DHT22;6511;49.746;6.094;2023-03-14T03:42:32;8.30;99.90
12887;DHT22;6511;49.746;6.094;2023-03-14T03:44:57;8.20;99.90
12887;DHT22;6511;49.746;6.094;2023-03-14T03:47:23;8.20;99.90
12887;DHT22;6511;49.746;6.094;2023-03-14T03:49:49;8.20;99.90
12887;DHT22;6511;49.746;6.094;2023-03-14T03:52:14;8.20;99.90
12887;DHT22;6511;49.746;6.094;2023-03-14T03:54:40;8.10;99.90
12887;DHT22;6511;49.746;6.094;2023-03-14T03:57:06;8.10;99.90
12887;DHT22;6511;49.746;6.094;2023-03-14T03:59:31;8.10;99.90
12887;DHT22;6511;49.746;6.094;2023-03-14T04:01:57;8.10;99.90
12887;DHT22;6511;49.746;6.094;2023-03-14T04:04:23;8.10;99.90
12887;DHT22;6511;49.746;6.094;2023-03-14T04:06:51;8.10;99.90
12887;DHT22;6511;49.746;6.094;2023-03-14T04:09:17;8.00;99.90
12887;DHT22;6511;49.746;6.094;2023-03-14T04:11:43;8.10;99.90
12887;DHT22;6511;49.746;6.094;2023-03-14T04:14:08;8.00;99.90
12887;DHT22;6511;49.746;6.094;2023-03-14T04:16:34;8.00;99.90
12887;DHT22;6511;49.746;6.094;2023-03-14T04:19:00;8.00;99.90
12887;DHT22;6511;49.746;6.094;2023-03-14T04:21:26;8.00;99.90
12887;DHT22;6511;49.746;6.094;2023-03-14T04:23:52;8.00;99.90
12887;DHT22;6511;49.746;6.094;2023-03-14T04:26:17;8.00;99.90
12887;DHT22;6511;49.746;6.094;2023-03-14T04:28:43;8.00;99.90
12887;DHT22;6511;49.746;6.094;2023-03-14T04:31:20;8.00;99.90
12887;DHT22;6511;49.746;6.094;2023-03-14T04:33:47;8.00;99.90
12887;DHT22;6511;49.746;6.094;2023-03-14T04:36:13;8.00;99.90
12887;DHT22;6511;49.746;6.094;2023-03-14T04:38:39;8.00;99.90
12887;DHT22;6511;49.746;6.094;2023-03-14T04:41:05;8.00;99.90
12887;DHT22;6511;49.746;6.094;2023-03-14T04:43:32;8.00;99.90
12887;DHT22;6511;49.746;6.094;2023-03-14T04:45:58;8.00;99.90
12887;DHT22;6511;49.746;6.094;2023-03-14T04:48:25;8.00;99.90
12887;DHT22;6511;49.746;6.094;2023-03-14T04:50:50;8.00;99.90
12887;DHT22;6511;49.746;6.094;2023-03-14T04:53:17;8.10;99.90
12887;DHT22;6511;49.746;6.094;2023-03-14T04:55:54;8.10;99.90
12887;DHT22;6511;49.746;6.094;2023-03-14T04:58:21;8.10;99.90
12887;DHT22;6511;49.746;6.094;2023-03-14T05:00:46;8.10;99.90
12887;DHT22;6511;49.746;6.094;2023-03-14T05:03:14;8.20;99.90
12887;DHT22;6511;49.746;6.094;2023-03-14T05:05:40;8.10;99.90
12887;DHT22;6511;49.746;6.094;2023-03-14T05:08:06;8.10;99.90
12887;DHT22;6511;49.746;6.094;2023-03-14T05:10:31;8.10;99.90
12887;DHT22;6511;49.746;6.094;2023-03-14T05:12:57;8.10;99.90
12887;DHT22;6511;49.746;6.094;2023-03-14T05:15:23;8.10;99.90
12887;DHT22;6511;49.746;6.094;2023-03-14T05:17:48;8.20;99.90
12887;DHT22;6511;49.746;6.094;2023-03-14T05:20:14;8.20;99.90
12887;DHT22;6511;49.746;6.094;2023-03-14T05:22:41;8.20;99.90
12887;DHT22;6511;49.746;6.094;2023-03-14T05:25:07;8.10;99.90
12887;DHT22;6511;49.746;6.094;2023-03-14T05:27:34;8.20;99.90
12887;DHT22;6511;49.746;6.094;2023-03-14T05:29:59;8.20;99.90
12887;DHT22;6511;49.746;6.094;2023-03-14T05:32:25;8.20;99.90
12887;DHT22;6511;49.746;6.094;2023-03-14T05:34:51;8.20;99.90
12887;DHT22;6511;49.746;6.094;2023-03-14T05:37:16;8.20;99.90
12887;DHT22;6511;49.746;6.094;2023-03-14T05:39:42;8.20;99.90
12887;DHT22;6511;49.746;6.094;2023-03-14T05:42:08;8.10;99.90
12887;DHT22;6511;49.746;6.094;2023-03-14T05:44:33;8.20;99.90
12887;DHT22;6511;49.746;6.094;2023-03-14T05:46:59;8.10;99.90
12887;DHT22;6511;49.746;6.094;2023-03-14T05:49:24;8.10;99.90
12887;DHT22;6511;49.746;6.094;2023-03-14T05:51:51;8.10;99.90
12887;DHT22;6511;49.746;6.094;2023-03-14T05:54:16;8.10;99.90
12887;DHT22;6511;49.746;6.094;2023-03-14T05:56:42;8.20;99.90
12887;DHT22;6511;49.746;6.094;2023-03-14T05:59:08;8.20;99.90
12887;DHT22;6511;49.746;6.094;2023-03-14T06:01:34;8.20;99.90
12887;DHT22;6511;49.746;6.094;2023-03-14T06:04:00;8.20;99.90
12887;DHT22;6511;49.746;6.094;2023-03-14T06:06:25;8.20;99.90
12887;DHT22;6511;49.746;6.094;2023-03-14T06:08:51;8.20;99.90
12887;DHT22;6511;49.746;6.094;2023-03-14T06:11:17;8.20;99.90
12887;DHT22;6511;49.746;6.094;2023-03-14T06:13:43;8.30;99.90
12887;DHT22;6511;49.746;6.094;2023-03-14T06:16:08;8.30;99.90
12887;DHT22;6511;49.746;6.094;2023-03-14T06:18:34;8.30;99.90
12887;DHT22;6511;49.746;6.094;2023-03-14T06:21:00;8.30;99.90
12887;DHT22;6511;49.746;6.094;2023-03-14T06:23:25;8.30;99.90
12887;DHT22;6511;49.746;6.094;2023-03-14T06:25:51;8.30;99.90
12887;DHT22;6511;49.746;6.094;2023-03-14T06:28:17;8.30;99.90
12887;DHT22;6511;49.746;6.094;2023-03-14T06:30:43;8.30;99.90
12887;DHT22;6511;49.746;6.094;2023-03-14T06:33:08;8.40;99.90
12887;DHT22;6511;49.746;6.094;2023-03-14T06:35:34;8.40;99.90
12887;DHT22;6511;49.746;6.094;2023-03-14T06:38:00;8.50;99.90
12887;DHT22;6511;49.746;6.094;2023-03-14T06:40:25;8.50;99.90
12887;DHT22;6511;49.746;6.094;2023-03-14T06:42:51;8.50;99.90
12887;DHT22;6511;49.746;6.094;2023-03-14T06:45:17;8.40;99.90
12887;DHT22;6511;49.746;6.094;2023-03-14T06:47:43;8.40;99.90
12887;DHT22;6511;49.746;6.094;2023-03-14T06:50:09;8.40;99.90
12887;DHT22;6511;49.746;6.094;2023-03-14T06:52:36;8.50;99.90
12887;DHT22;6511;49.746;6.094;2023-03-14T06:55:02;8.50;99.90
12887;DHT22;6511;49.746;6.094;2023-03-14T06:57:28;8.60;99.90
12887;DHT22;6511;49.746;6.094;2023-03-14T06:59:54;8.60;99.90
12887;DHT22;6511;49.746;6.094;2023-03-14T07:02:20;8.70;99.90
12887;DHT22;6511;49.746;6.094;2023-03-14T07:04:47;8.70;99.90
12887;DHT22;6511;49.746;6.094;2023-03-14T07:07:13;8.80;99.90
12887;DHT22;6511;49.746;6.094;2023-03-14T07:09:38;8.90;99.90
12887;DHT22;6511;49.746;6.094;2023-03-14T07:12:04;9.10;99.90
12887;DHT22;6511;49.746;6.094;2023-03-14T07:14:30;9.10;99.90
12887;DHT22;6511;49.746;6.094;2023-03-14T07:16:56;9.20;99.90
12887;DHT22;6511;49.746;6.094;2023-03-14T07:19:21;9.30;99.90
12887;DHT22;6511;49.746;6.094;2023-03-14T07:21:47;9.40;99.90
12887;DHT22;6511;49.746;6.094;2023-03-14T07:24:13;9.40;99.90
12887;DHT22;6511;49.746;6.094;2023-03-14T07:26:38;9.40;99.90
12887;DHT22;6511;49.746;6.094;2023-03-14T07:29:04;9.40;99.90
12887;DHT22;6511;49.746;6.094;2023-03-14T07:31:30;9.30;99.90
12887;DHT22;6511;49.746;6.094;2023-03-14T07:33:57;9.40;99.90
12887;DHT22;6511;49.746;6.094;2023-03-14T07:36:22;9.20;99.90
12887;DHT22;6511;49.746;6.094;2023-03-14T07:38:48;9.20;99.90
12887;DHT22;6511;49.746;6.094;2023-03-14T07:41:14;9.20;99.90
12887;DHT22;6511;49.746;6.094;2023-03-14T07:43:40;9.40;99.90
12887;DHT22;6511;49.746;6.094;2023-03-14T07:46:06;9.40;99.90
12887;DHT22;6511;49.746;6.094;2023-03-14T07:48:33;9.30;99.90
12887;DHT22;6511;49.746;6.094;2023-03-14T07:50:58;9.30;99.90
12887;DHT22;6511;49.746;6.094;2023-03-14T07:53:25;9.30;99.90
12887;DHT22;6511;49.746;6.094;2023-03-14T07:55:52;9.30;99.90
12887;DHT22;6511;49.746;6.094;2023-03-14T07:58:18;9.20;99.90
12887;DHT22;6511;49.746;6.094;2023-03-14T08:00:44;9.20;99.90
12887;DHT22;6511;49.746;6.094;2023-03-14T08:03:09;9.20;99.90
12887;DHT22;6511;49.746;6.094;2023-03-14T08:05:36;9.10;99.90
12887;DHT22;6511;49.746;6.094;2023-03-14T08:08:03;9.00;99.90
12887;DHT22;6511;49.746;6.094;2023-03-14T08:10:29;9.00;99.90
12887;DHT22;6511;49.746;6.094;2023-03-14T08:12:56;9.00;99.90
12887;DHT22;6511;49.746;6.094;2023-03-14T08:15:23;9.20;99.90
12887;DHT22;6511;49.746;6.094;2023-03-14T08:17:49;9.20;99.90
12887;DHT22;6511;49.746;6.094;2023-03-14T08:20:28;9.30;99.90
12887;DHT22;6511;49.746;6.094;2023-03-14T08:22:56;9.30;99.90
12887;DHT22;6511;49.746;6.094;2023-03-14T08:25:22;9.30;99.90
12887;DHT22;6511;49.746;6.094;2023-03-14T08:27:47;9.30;99.90
12887;DHT22;6511;49.746;6.094;2023-03-14T08:30:15;9.40;99.90
12887;DHT22;6511;49.746;6.094;2023-03-14T08:32:41;9.40;99.90
12887;DHT22;6511;49.746;6.094;2023-03-14T08:35:07;9.40;99.90
12887;DHT22;6511;49.746;6.094;2023-03-14T08:37:34;9.30;99.90
12887;DHT22;6511;49.746;6.094;2023-03-14T08:40:01;9.40;99.90
12887;DHT22;6511;49.746;6.094;2023-03-14T08:42:26;9.50;99.90
12887;DHT22;6511;49.746;6.094;2023-03-14T08:44:52;9.60;99.90
12887;DHT22;6511;49.746;6.094;2023-03-14T08:47:18;9.60;99.90
12887;DHT22;6511;49.746;6.094;2023-03-14T08:49:44;9.70;99.90
12887;DHT22;6511;49.746;6.094;2023-03-14T08:52:10;9.90;99.90
12887;DHT22;6511;49.746;6.094;2023-03-14T08:54:35;10.00;99.90
12887;DHT22;6511;49.746;6.094;2023-03-14T08:57:01;10.10;99.90
12887;DHT22;6511;49.746;6.094;2023-03-14T08:59:26;10.40;99.90
12887;DHT22;6511;49.746;6.094;2023-03-14T09:01:52;10.50;99.90
12887;DHT22;6511;49.746;6.094;2023-03-14T09:04:19;10.30;99.90
12887;DHT22;6511;49.746;6.094;2023-03-14T09:06:45;10.30;99.90
12887;DHT22;6511;49.746;6.094;2023-03-14T09:09:10;10.20;99.90
12887;DHT22;6511;49.746;6.094;2023-03-14T09:11:36;10.10;99.90
12887;DHT22;6511;49.746;6.094;2023-03-14T09:14:01;10.00;99.90
12887;DHT22;6511;49.746;6.094;2023-03-14T09:16:27;9.90;99.90
12887;DHT22;6511;49.746;6.094;2023-03-14T09:18:53;9.80;99.90
12887;DHT22;6511;49.746;6.094;2023-03-14T09:21:20;9.20;99.90
12887;DHT22;6511;49.746;6.094;2023-03-14T09:23:46;8.30;99.90
12887;DHT22;6511;49.746;6.094;2023-03-14T09:26:12;7.90;99.90
12887;DHT22;6511;49.746;6.094;2023-03-14T09:28:38;7.90;99.90
12887;DHT22;6511;49.746;6.094;2023-03-14T09:31:08;7.80;99.90
12887;DHT22;6511;49.746;6.094;2023-03-14T09:33:34;7.80;99.90
12887;DHT22;6511;49.746;6.094;2023-03-14T09:36:01;8.00;99.90
12887;DHT22;6511;49.746;6.094;2023-03-14T09:38:27;8.30;99.90
12887;DHT22;6511;49.746;6.094;2023-03-14T09:40:54;8.70;99.90
12887;DHT22;6511;49.746;6.094;2023-03-14T09:43:21;8.60;99.90
12887;DHT22;6511;49.746;6.094;2023-03-14T09:45:48;8.60;99.90
12887;DHT22;6511;49.746;6.094;2023-03-14T09:48:24;8.60;99.90
12887;DHT22;6511;49.746;6.094;2023-03-14T09:50:54;8.70;99.90
12887;DHT22;6511;49.746;6.094;2023-03-14T09:53:32;8.50;99.90
12887;DHT22;6511;49.746;6.094;2023-03-14T09:56:00;8.60;99.90
12887;DHT22;6511;49.746;6.094;2023-03-14T09:58:27;8.50;99.90
12887;DHT22;6511;49.746;6.094;2023-03-14T10:00:55;8.40;99.90
12887;DHT22;6511;49.746;6.094;2023-03-14T10:03:41;8.20;99.90
12887;DHT22;6511;49.746;6.094;2023-03-14T10:06:14;7.80;99.90
12887;DHT22;6511;49.746;6.094;2023-03-14T10:08:44;7.40;99.90
12887;DHT22;6511;49.746;6.094;2023-03-14T10:11:15;7.20;99.90
12887;DHT22;6511;49.746;6.094;2023-03-14T10:14:03;7.20;99.90
12887;DHT22;6511;49.746;6.094;2023-03-14T10:16:51;7.50;99.90
12887;DHT22;6511;49.746;6.094;2023-03-14T10:19:17;7.60;99.90
12887;DHT22;6511;49.746;6.094;2023-03-14T10:21:44;7.70;99.90
12887;DHT22;6511;49.746;6.094;2023-03-14T10:24:22;7.80;99.90
12887;DHT22;6511;49.746;6.094;2023-03-14T10:26:49;7.90;99.90
12887;DHT22;6511;49.746;6.094;2023-03-14T10:29:17;8.10;99.90
12887;DHT22;6511;49.746;6.094;2023-03-14T10:32:04;8.60;99.90
12887;DHT22;6511;49.746;6.094;2023-03-14T10:34:38;8.60;99.90
12887;DHT22;6511;49.746;6.094;2023-03-14T10:37:08;8.50;99.90
12887;DHT22;6511;49.746;6.094;2023-03-14T10:39:53;8.90;99.90
12887;DHT22;6511;49.746;6.094;2023-03-14T10:42:26;9.10;99.90
12887;DHT22;6511;49.746;6.094;2023-03-14T10:44:57;9.00;99.90
12887;DHT22;6511;49.746;6.094;2023-03-14T10:47:26;9.10;99.90
12887;DHT22;6511;49.746;6.094;2023-03-14T10:49:52;8.80;99.90
12887;DHT22;6511;49.746;6.094;2023-03-14T10:52:24;8.60;99.90
12887;DHT22;6511;49.746;6.094;2023-03-14T10:57:20;8.80;99.90
12887;DHT22;6511;49.746;6.094;2023-03-14T10:59:46;8.70;99.90
12887;DHT22;6511;49.746;6.094;2023-03-14T11:02:45;8.50;99.90
12887;DHT22;6511;49.746;6.094;2023-03-14T11:07:44;8.30;99.90
12887;DHT22;6511;49.746;6.094;2023-03-14T11:10:22;8.10;99.90
12887;DHT22;6511;49.746;6.094;2023-03-14T11:13:14;8.00;99.90
12887;DHT22;6511;49.746;6.094;2023-03-14T11:16:06;7.50;99.90
12887;DHT22;6511;49.746;6.094;2023-03-14T11:24:44;7.60;99.90
12887;DHT22;6511;49.746;6.094;2023-03-14T11:27:21;7.70;99.90
12887;DHT22;6511;49.746;6.094;2023-03-14T11:34:59;7.50;99.90
12887;DHT22;6511;49.746;6.094;2023-03-14T11:37:39;7.70;99.90
12887;DHT22;6511;49.746;6.094;2023-03-14T11:40:23;8.10;99.90
12887;DHT22;6511;49.746;6.094;2023-03-14T11:43:34;8.10;99.90
12887;DHT22;6511;49.746;6.094;2023-03-14T11:45:56;8.20;99.90
12887;DHT22;6511;49.746;6.094;2023-03-14T11:51:30;8.20;99.90
12887;DHT22;6511;49.746;6.094;2023-03-14T11:55:00;8.20;99.90
12887;DHT22;6511;49.746;6.094;2023-03-14T11:57:16;8.40;99.90
12887;DHT22;6511;49.746;6.094;2023-03-14T12:07:21;8.60;99.90
12887;DHT22;6511;49.746;6.094;2023-03-14T12:09:48;8.60;99.90
12887;DHT22;6511;49.746;6.094;2023-03-14T12:12:19;8.60;99.90
12887;DHT22;6511;49.746;6.094;2023-03-14T12:14:53;8.70;99.90
12887;DHT22;6511;49.746;6.094;2023-03-14T12:17:22;8.50;99.90
12887;DHT22;6511;49.746;6.094;2023-03-14T12:22:50;8.40;99.90
12887;DHT22;6511;49.746;6.094;2023-03-14T12:35:38;9.10;99.90
12887;DHT22;6511;49.746;6.094;2023-03-14T12:38:09;8.80;99.90
12887;DHT22;6511;49.746;6.094;2023-03-14T12:40:40;8.70;99.90
12887;DHT22;6511;49.746;6.094;2023-03-14T12:43:27;9.20;99.90
12887;DHT22;6511;49.746;6.094;2023-03-14T12:46:28;9.40;99.90
12887;DHT22;6511;49.746;6.094;2023-03-14T12:54:35;9.50;99.90
12887;DHT22;6511;49.746;6.094;2023-03-14T12:59:59;8.80;99.90
12887;DHT22;6511;49.746;6.094;2023-03-14T13:02:43;8.50;99.90
12887;DHT22;6511;49.746;6.094;2023-03-14T13:05:15;8.70;99.90
12887;DHT22;6511;49.746;6.094;2023-03-14T13:10:27;8.50;99.90
12887;DHT22;6511;49.746;6.094;2023-03-14T13:13:19;8.70;99.90
12887;DHT22;6511;49.746;6.094;2023-03-14T13:15:44;8.90;99.90
12887;DHT22;6511;49.746;6.094;2023-03-14T13:18:17;9.10;99.90
12887;DHT22;6511;49.746;6.094;2023-03-14T13:20:58;9.30;99.90
12887;DHT22;6511;49.746;6.094;2023-03-14T13:23:30;9.70;99.90
12887;DHT22;6511;49.746;6.094;2023-03-14T13:25:56;9.90;99.90
12887;DHT22;6511;49.746;6.094;2023-03-14T13:28:22;9.40;99.90
12887;DHT22;6511;49.746;6.094;2023-03-14T13:30:50;9.00;99.90
12887;DHT22;6511;49.746;6.094;2023-03-14T13:33:21;8.90;99.90
12887;DHT22;6511;49.746;6.094;2023-03-14T13:35:54;9.00;99.90
12887;DHT22;6511;49.746;6.094;2023-03-14T13:38:23;9.20;99.90
12887;DHT22;6511;49.746;6.094;2023-03-14T13:40:50;9.20;99.90
12887;DHT22;6511;49.746;6.094;2023-03-14T13:45:51;9.00;99.90
12887;DHT22;6511;49.746;6.094;2023-03-14T13:48:18;9.10;99.90
12887;DHT22;6511;49.746;6.094;2023-03-14T13:51:11;9.20;99.90
12887;DHT22;6511;49.746;6.094;2023-03-14T13:56:15;9.50;99.90
12887;DHT22;6511;49.746;6.094;2023-03-14T13:58:41;9.70;99.90
12887;DHT22;6511;49.746;6.094;2023-03-14T14:01:24;9.30;99.90
12887;DHT22;6511;49.746;6.094;2023-03-14T14:03:52;9.20;99.90
12887;DHT22;6511;49.746;6.094;2023-03-14T14:06:37;9.20;99.90
12887;DHT22;6511;49.746;6.094;2023-03-14T14:09:19;9.30;99.90
12887;DHT22;6511;49.746;6.094;2023-03-14T14:12:02;9.30;99.90
12887;DHT22;6511;49.746;6.094;2023-03-14T14:14:50;9.50;99.90
12887;DHT22;6511;49.746;6.094;2023-03-14T14:17:42;9.80;99.90
12887;DHT22;6511;49.746;6.094;2023-03-14T14:20:08;9.50;99.90
12887;DHT22;6511;49.746;6.094;2023-03-14T14:22:38;9.40;99.90
12887;DHT22;6511;49.746;6.094;2023-03-14T14:25:04;9.30;99.90
12887;DHT22;6511;49.746;6.094;2023-03-14T14:27:37;9.30;99.90
12887;DHT22;6511;49.746;6.094;2023-03-14T14:30:24;9.00;99.90
12887;DHT22;6511;49.746;6.094;2023-03-14T14:32:51;9.00;99.90
12887;DHT22;6511;49.746;6.094;2023-03-14T14:35:31;9.30;99.90
12887;DHT22;6511;49.746;6.094;2023-03-14T14:37:58;9.20;99.90
12887;DHT22;6511;49.746;6.094;2023-03-14T14:40:25;9.40;99.90
12887;DHT22;6511;49.746;6.094;2023-03-14T14:42:52;9.60;99.90
12887;DHT22;6511;49.746;6.094;2023-03-14T14:50:36;9.80;99.90
12887;DHT22;6511;49.746;6.094;2023-03-14T14:53:18;10.20;99.90
12887;DHT22;6511;49.746;6.094;2023-03-14T14:55:49;10.60;99.90
12887;DHT22;6511;49.746;6.094;2023-03-14T14:58:24;11.30;99.90
12887;DHT22;6511;49.746;6.094;2023-03-14T15:01:02;11.30;99.90
12887;DHT22;6511;49.746;6.094;2023-03-14T15:03:30;11.20;99.90
12887;DHT22;6511;49.746;6.094;2023-03-14T15:05:57;11.10;99.90
12887;DHT22;6511;49.746;6.094;2023-03-14T15:08:24;11.10;99.90
12887;DHT22;6511;49.746;6.094;2023-03-14T15:10:51;10.80;99.90
12887;DHT22;6511;49.746;6.094;2023-03-14T15:13:17;10.40;99.90
12887;DHT22;6511;49.746;6.094;2023-03-14T15:15:42;8.80;99.90
12887;DHT22;6511;49.746;6.094;2023-03-14T15:18:18;7.90;99.90
12887;DHT22;6511;49.746;6.094;2023-03-14T15:20:45;7.80;99.90
12887;DHT22;6511;49.746;6.094;2023-03-14T15:23:15;8.00;99.90
12887;DHT22;6511;49.746;6.094;2023-03-14T15:25:42;7.80;99.90
12887;DHT22;6511;49.746;6.094;2023-03-14T15:28:17;7.70;99.90
12887;DHT22;6511;49.746;6.094;2023-03-14T15:30:43;7.70;99.90
12887;DHT22;6511;49.746;6.094;2023-03-14T15:33:09;7.70;99.90
12887;DHT22;6511;49.746;6.094;2023-03-14T15:35:36;7.70;99.90
12887;DHT22;6511;49.746;6.094;2023-03-14T15:38:02;8.00;99.90
12887;DHT22;6511;49.746;6.094;2023-03-14T15:40:28;8.30;99.90
12887;DHT22;6511;49.746;6.094;2023-03-14T15:42:54;8.10;99.90
12887;DHT22;6511;49.746;6.094;2023-03-14T15:45:20;7.70;99.90
12887;DHT22;6511;49.746;6.094;2023-03-14T15:47:45;7.60;99.90
12887;DHT22;6511;49.746;6.094;2023-03-14T15:50:11;7.70;99.90
12887;DHT22;6511;49.746;6.094;2023-03-14T15:52:37;8.00;99.90
12887;DHT22;6511;49.746;6.094;2023-03-14T15:55:02;8.10;99.90
12887;DHT22;6511;49.746;6.094;2023-03-14T15:57:28;8.20;99.90
12887;DHT22;6511;49.746;6.094;2023-03-14T15:59:54;8.30;99.90
12887;DHT22;6511;49.746;6.094;2023-03-14T16:02:20;8.30;99.90
12887;DHT22;6511;49.746;6.094;2023-03-14T16:04:45;8.30;99.90
12887;DHT22;6511;49.746;6.094;2023-03-14T16:07:11;8.20;99.90
12887;DHT22;6511;49.746;6.094;2023-03-14T16:09:37;8.20;99.90
12887;DHT22;6511;49.746;6.094;2023-03-14T16:12:03;8.50;99.90
12887;DHT22;6511;49.746;6.094;2023-03-14T16:14:30;8.50;99.90
12887;DHT22;6511;49.746;6.094;2023-03-14T16:16:56;8.70;99.90
12887;DHT22;6511;49.746;6.094;2023-03-14T16:19:25;8.80;99.90
12887;DHT22;6511;49.746;6.094;2023-03-14T16:21:52;8.70;99.90
12887;DHT22;6511;49.746;6.094;2023-03-14T16:24:18;8.40;99.90
12887;DHT22;6511;49.746;6.094;2023-03-14T16:26:44;8.10;99.90
12887;DHT22;6511;49.746;6.094;2023-03-14T16:29:10;7.70;99.90
12887;DHT22;6511;49.746;6.094;2023-03-14T16:31:36;7.60;99.90
12887;DHT22;6511;49.746;6.094;2023-03-14T16:34:10;7.70;99.90
12887;DHT22;6511;49.746;6.094;2023-03-14T16:36:36;7.60;99.90
12887;DHT22;6511;49.746;6.094;2023-03-14T16:39:02;7.80;99.90
12887;DHT22;6511;49.746;6.094;2023-03-14T16:41:29;8.00;99.90
12887;DHT22;6511;49.746;6.094;2023-03-14T16:43:58;8.10;99.90
12887;DHT22;6511;49.746;6.094;2023-03-14T16:46:24;8.00;99.90
12887;DHT22;6511;49.746;6.094;2023-03-14T16:48:52;7.90;99.90
12887;DHT22;6511;49.746;6.094;2023-03-14T16:51:18;8.00;99.90
12887;DHT22;6511;49.746;6.094;2023-03-14T16:53:45;8.10;99.90
12887;DHT22;6511;49.746;6.094;2023-03-14T16:56:11;8.10;99.90
12887;DHT22;6511;49.746;6.094;2023-03-14T16:58:37;7.90;99.90
12887;DHT22;6511;49.746;6.094;2023-03-14T17:01:08;7.90;99.90
12887;DHT22;6511;49.746;6.094;2023-03-14T17:03:38;7.40;99.90
12887;DHT22;6511;49.746;6.094;2023-03-14T17:06:04;6.30;99.90
12887;DHT22;6511;49.746;6.094;2023-03-14T17:08:30;4.80;99.90
12887;DHT22;6511;49.746;6.094;2023-03-14T17:10:56;4.40;99.90
12887;DHT22;6511;49.746;6.094;2023-03-14T17:13:21;3.90;99.90
12887;DHT22;6511;49.746;6.094;2023-03-14T17:16:00;3.60;99.90
12887;DHT22;6511;49.746;6.094;2023-03-14T17:18:27;3.40;99.90
12887;DHT22;6511;49.746;6.094;2023-03-14T17:20:54;2.70;99.90